Time;durP1;ratioP1;P1;durP2;ratioP2;P2;SDS_P1;SDS_P2;PMS_P1;PMS_P2;Temp;Humidity;BMP_temperature;BMP_pressure;BME280_temperature;BME280_humidity;BME280_pressure;Samples;Min_cycle;Max_cycle;Signal;HPM_P1;HPM_P2
2022/12/29 00:01:28;;;;;;;10.43;6.25;;;22.20;58.50;;;;;;5082405;28;20511;-72
2022/12/29 00:03:54;;;;;;;10.15;6.88;;;22.10;58.50;;;;;;5070813;28;20430;-73
2022/12/29 00:06:20;;;;;;;8.30;5.70;;;22.10;58.50;;;;;;5069004;28;20071;-73
2022/12/29 00:08:46;;;;;;;10.88;7.07;;;22.10;58.60;;;;;;5069726;28;20056;-73
2022/12/29 00:11:22;;;;;;;13.48;7.22;;;22.10;58.60;;;;;;5071132;28;20036;-72
2022/12/29 00:16:35;;;;;;;13.23;6.80;;;22.00;58.70;;;;;;5078147;28;20029;-72
2022/12/29 00:19:02;;;;;;;10.52;6.53;;;22.00;58.80;;;;;;5071257;28;20044;-72
2022/12/29 00:35:25;;;;;;;13.30;7.25;;;21.90;58.50;;;;;;5075764;28;20056;-73
2022/12/29 00:46:07;;;;;;;13.38;7.40;;;21.90;58.40;;;;;;5081324;28;20086;-73
2022/12/29 00:51:17;;;;;;;10.10;6.70;;;21.90;58.40;;;;;;5080993;28;20032;-73
2022/12/29 00:53:43;;;;;;;7.80;6.25;;;21.80;58.40;;;;;;5089863;28;20047;-73
2022/12/29 00:56:09;;;;;;;13.88;6.50;;;21.70;58.20;;;;;;5090868;28;20028;-72
2022/12/29 00:58:35;;;;;;;9.43;6.35;;;21.70;58.40;;;;;;5093541;28;20043;-72
2022/12/29 01:01:11;;;;;;;10.20;5.93;;;21.70;58.20;;;;;;5077673;28;20029;-73
2022/12/29 01:03:38;;;;;;;11.38;6.22;;;21.70;58.30;;;;;;5074309;28;20033;-72
2022/12/29 01:06:09;;;;;;;16.58;6.95;;;21.60;58.10;;;;;;5080926;28;20543;-73
2022/12/29 01:08:37;;;;;;;11.15;6.20;;;21.60;58.10;;;;;;5089316;28;20040;-72
2022/12/29 01:11:06;;;;;;;7.57;6.00;;;21.60;58.30;;;;;;5078515;28;20036;-73
2022/12/29 01:13:32;;;;;;;11.43;6.53;;;21.60;58.30;;;;;;5074355;28;20041;-72
2022/12/29 01:15:58;;;;;;;12.48;6.88;;;21.50;58.30;;;;;;5082371;28;20484;-73
2022/12/29 01:18:26;;;;;;;9.50;7.43;;;21.70;58.40;;;;;;5072940;28;20040;-73
2022/12/29 01:21:02;;;;;;;15.75;7.55;;;21.60;58.20;;;;;;5076028;28;20031;-72
2022/12/29 01:23:29;;;;;;;18.90;8.40;;;21.70;58.10;;;;;;5094509;28;20115;-73
2022/12/29 01:25:55;;;;;;;11.45;6.85;;;21.50;57.90;;;;;;5094790;28;20168;-72
2022/12/29 01:28:21;;;;;;;11.18;7.18;;;21.50;58.10;;;;;;5092735;28;20044;-72
2022/12/29 01:30:47;;;;;;;12.55;6.97;;;21.50;58.10;;;;;;5080505;28;20133;-72
2022/12/29 01:33:14;;;;;;;12.65;7.55;;;21.50;58.10;;;;;;5072898;28;20036;-73
2022/12/29 01:35:40;;;;;;;9.70;6.63;;;21.50;58.00;;;;;;5072279;28;20036;-72
2022/12/29 01:38:07;;;;;;;10.20;6.88;;;21.50;58.00;;;;;;5079997;28;20350;-73
2022/12/29 01:40:42;;;;;;;14.18;7.20;;;21.50;57.90;;;;;;5072265;28;20108;-72
2022/12/29 01:43:12;;;;;;;9.85;6.57;;;21.60;57.80;;;;;;5072684;28;20158;-71
2022/12/29 01:45:45;;;;;;;12.73;6.40;;;21.50;57.80;;;;;;5072206;28;20052;-73
2022/12/29 01:48:14;;;;;;;14.10;8.02;;;21.50;57.80;;;;;;5074998;28;20028;-73
2022/12/29 01:50:49;;;;;;;8.75;6.68;;;21.50;57.70;;;;;;5072020;28;20059;-72
2022/12/29 01:53:22;;;;;;;8.60;6.40;;;21.50;57.70;;;;;;5073718;28;20044;-73
2022/12/29 01:55:55;;;;;;;11.52;7.22;;;21.50;57.60;;;;;;5073520;28;20043;-72
2022/12/29 01:58:26;;;;;;;11.07;7.38;;;21.50;57.70;;;;;;5086492;28;20389;-72
2022/12/29 02:00:52;;;;;;;14.00;6.78;;;21.30;57.60;;;;;;5073817;28;20021;-72
2022/12/29 02:03:21;;;;;;;11.55;6.15;;;21.20;57.50;;;;;;5072798;28;20024;-73
2022/12/29 02:06:02;;;;;;;14.52;6.97;;;21.30;57.60;;;;;;5072272;28;20688;-73
2022/12/29 02:08:29;;;;;;;11.85;6.57;;;21.20;57.50;;;;;;5087161;28;20091;-73
2022/12/29 02:10:56;;;;;;;10.27;6.38;;;21.30;57.60;;;;;;5073428;28;20093;-73
2022/12/29 02:13:26;;;;;;;9.70;5.53;;;21.20;57.50;;;;;;5073578;28;20055;-72
2022/12/29 02:16:20;;;;;;;10.57;5.72;;;21.30;57.50;;;;;;5071218;28;20108;-73
2022/12/29 02:18:52;;;;;;;;;;;21.20;57.40;;;;;;5072324;28;20462;-72
2022/12/29 02:21:40;;;;;;;9.93;6.70;;;21.20;57.40;;;;;;5071547;28;19912;-73
2022/12/29 02:24:22;;;;;;;10.95;6.93;;;21.20;57.40;;;;;;5090745;28;20050;-72
2022/12/29 02:26:56;;;;;;;10.05;6.35;;;21.10;57.30;;;;;;5092619;28;20032;-73
2022/12/29 02:29:28;;;;;;;9.52;5.72;;;21.20;57.30;;;;;;5090733;28;20108;-72
2022/12/29 02:32:10;;;;;;;10.63;6.13;;;21.20;57.30;;;;;;5090552;28;20081;-73
2022/12/29 02:35:09;;;;;;;11.48;6.93;;;21.10;57.50;;;;;;5090981;28;20032;-72
2022/12/29 02:37:47;;;;;;;12.82;7.07;;;21.00;57.50;;;;;;5090995;28;20115;-71
2022/12/29 02:40:37;;;;;;;10.48;6.65;;;21.10;57.50;;;;;;5093136;28;20658;-71
2022/12/29 02:43:19;;;;;;;10.23;6.65;;;21.10;57.50;;;;;;5006406;28;20446;-73
2022/12/29 02:45:56;;;;;;;9.20;6.25;;;21.10;57.40;;;;;;5001835;28;20658;-73
2022/12/29 02:48:43;;;;;;;11.63;6.75;;;21.00;57.10;;;;;;5010083;28;20057;-72
2022/12/29 02:51:25;;;;;;;9.52;6.68;;;21.10;57.20;;;;;;4992932;28;20369;-72
2022/12/29 02:56:38;;;;;;;16.13;7.38;;;21.10;57.00;;;;;;4987419;28;20160;-72
2022/12/29 02:59:05;;;;;;;15.88;8.55;;;21.10;56.90;;;;;;4992934;28;20209;-71
2022/12/29 03:02:17;;;;;;;11.38;7.70;;;21.00;56.70;;;;;;4997569;28;20046;-73
2022/12/29 03:05:07;;;;;;;15.68;8.32;;;21.10;56.70;;;;;;4990289;28;20500;-71
2022/12/29 03:07:48;;;;;;;11.77;8.15;;;21.00;56.70;;;;;;4991164;28;20048;-72
2022/12/29 03:10:37;;;;;;;14.73;8.75;;;21.00;56.90;;;;;;5009721;28;20060;-72
2022/12/29 03:16:32;;;;;;;10.85;5.95;;;20.80;56.70;;;;;;4997055;28;20515;-72
2022/12/29 03:19:07;;;;;;;13.73;5.88;;;20.90;56.90;;;;;;4992402;28;20153;-71
2022/12/29 03:24:41;;;;;;;8.98;5.78;;;20.70;56.60;;;;;;5070587;28;20051;-72
2022/12/29 03:27:13;;;;;;;10.52;6.55;;;20.90;56.70;;;;;;5086338;28;20051;-71
2022/12/29 03:29:44;;;;;;;11.32;6.80;;;20.80;56.50;;;;;;5084486;28;20031;-72
2022/12/29 03:32:13;;;;;;;12.23;6.57;;;20.80;56.50;;;;;;5070868;28;20119;-72
2022/12/29 03:34:39;;;;;;;11.20;6.40;;;20.80;56.40;;;;;;5081433;28;20449;-72
2022/12/29 03:37:14;;;;;;;12.75;7.07;;;20.80;56.40;;;;;;5077102;28;20047;-71
2022/12/29 03:39:41;;;;;;;9.30;6.47;;;20.80;56.20;;;;;;5090404;28;20081;-72
2022/12/29 03:42:12;;;;;;;11.95;6.95;;;20.70;56.20;;;;;;5090375;28;20556;-72
2022/12/29 03:44:41;;;;;;;13.75;6.55;;;20.80;56.20;;;;;;5088454;28;20395;-72
2022/12/29 03:47:11;;;;;;;11.90;6.68;;;20.70;56.20;;;;;;5070156;28;20102;-72
2022/12/29 03:49:37;;;;;;;11.82;6.78;;;20.80;56.10;;;;;;5034400;28;20036;-72
2022/12/29 03:52:04;;;;;;;8.50;6.25;;;20.90;56.10;;;;;;5034974;28;20537;-71
2022/12/29 03:54:34;;;;;;;9.68;6.90;;;20.80;55.90;;;;;;5032139;28;20036;-72
2022/12/29 03:57:00;;;;;;;9.95;6.78;;;20.70;55.80;;;;;;5031600;28;20041;-72
2022/12/29 03:59:46;;;;;;;8.80;6.32;;;20.80;55.80;;;;;;5033666;28;20040;-72
2022/12/29 04:02:12;;;;;;;10.18;6.57;;;20.80;55.80;;;;;;5027359;28;20363;-71
2022/12/29 04:04:38;;;;;;;7.45;5.80;;;20.70;55.70;;;;;;5031941;28;20029;-72
2022/12/29 04:07:05;;;;;;;11.63;6.28;;;20.80;55.60;;;;;;5048909;28;20136;-72
2022/12/29 04:09:31;;;;;;;7.90;6.03;;;20.80;55.60;;;;;;5015319;28;20135;-72
2022/12/29 04:11:58;;;;;;;8.88;6.40;;;20.70;55.60;;;;;;5037318;28;20045;-71
2022/12/29 04:14:24;;;;;;;10.68;6.15;;;20.70;55.60;;;;;;5050045;28;20047;-72
2022/12/29 04:16:51;;;;;;;10.52;6.38;;;20.60;55.50;;;;;;5045728;28;20043;-71
2022/12/29 04:19:17;;;;;;;8.02;6.45;;;20.70;55.60;;;;;;5051501;28;20116;-72
2022/12/29 04:21:43;;;;;;;12.00;6.63;;;20.60;55.50;;;;;;5058138;28;20040;-73
2022/12/29 04:24:09;;;;;;;12.05;7.00;;;20.60;55.50;;;;;;5045419;28;20047;-71
2022/12/29 04:26:40;;;;;;;8.90;6.53;;;20.50;55.60;;;;;;5062372;28;20551;-72
2022/12/29 04:29:25;;;;;;;10.50;6.88;;;20.40;55.50;;;;;;5086973;28;20055;-72
2022/12/29 04:32:21;;;;;;;9.35;6.80;;;20.40;55.50;;;;;;5086381;28;20028;-72
2022/12/29 04:34:49;;;;;;;12.18;6.75;;;20.40;55.50;;;;;;5089679;28;20032;-71
2022/12/29 04:37:15;;;;;;;13.48;7.20;;;20.50;55.60;;;;;;5087476;28;20377;-72
2022/12/29 04:39:41;;;;;;;12.90;5.93;;;20.40;55.50;;;;;;5085350;28;20029;-71
2022/12/29 04:42:08;;;;;;;7.35;5.40;;;20.50;55.40;;;;;;5069142;28;20036;-72
2022/12/29 04:44:34;;;;;;;10.95;5.93;;;20.40;55.20;;;;;;5068897;28;20123;-72
2022/12/29 04:47:10;;;;;;;10.13;6.07;;;20.40;55.20;;;;;;5086330;28;20043;-72
2022/12/29 04:50:06;;;;;;;8.02;6.00;;;20.40;55.10;;;;;;5047133;28;20063;-73
2022/12/29 04:52:40;;;;;;;12.43;6.53;;;20.30;55.10;;;;;;5008543;28;20591;-72
2022/12/29 04:55:08;;;;;;;9.77;6.10;;;20.40;55.10;;;;;;4991834;28;20046;-73
2022/12/29 04:57:34;;;;;;;11.55;6.90;;;20.50;55.00;;;;;;4992013;28;20050;-73
2022/12/29 05:00:01;;;;;;;11.77;7.30;;;20.50;54.90;;;;;;5020689;28;20046;-71
2022/12/29 05:02:27;;;;;;;12.57;6.80;;;20.50;54.90;;;;;;5025784;28;20084;-71
2022/12/29 05:04:55;;;;;;;12.27;7.30;;;20.50;54.80;;;;;;5028050;28;20201;-72
2022/12/29 05:07:22;;;;;;;13.43;7.50;;;20.50;54.80;;;;;;5009463;28;20522;-72
2022/12/29 05:09:48;;;;;;;13.57;7.70;;;20.50;54.80;;;;;;5008060;28;20217;-72
2022/12/29 05:12:15;;;;;;;15.65;7.55;;;20.40;54.60;;;;;;4993675;28;20092;-72
2022/12/29 05:15:02;;;;;;;13.93;7.43;;;20.60;54.50;;;;;;5019305;28;20049;-71
2022/12/29 05:17:29;;;;;;;12.40;7.30;;;20.50;54.50;;;;;;5026654;28;20045;-72
2022/12/29 05:19:55;;;;;;;15.43;7.60;;;20.40;54.50;;;;;;5011089;28;20064;-72
2022/12/29 05:22:22;;;;;;;15.15;8.85;;;20.40;54.50;;;;;;5025101;28;20061;-72
2022/12/29 05:24:48;;;;;;;13.95;8.23;;;20.40;54.60;;;;;;5011340;28;20046;-72
2022/12/29 05:27:15;;;;;;;11.85;7.45;;;20.30;54.70;;;;;;5061224;28;20044;-71
2022/12/29 05:29:51;;;;;;;15.48;7.75;;;20.30;54.80;;;;;;5060653;28;20406;-72
2022/12/29 05:32:17;;;;;;;10.25;7.18;;;20.40;54.90;;;;;;5073794;28;20109;-72
2022/12/29 05:34:43;;;;;;;15.60;8.55;;;20.30;54.90;;;;;;5068032;28;20064;-71
2022/12/29 05:37:09;;;;;;;16.20;8.85;;;20.20;54.80;;;;;;5077896;28;20036;-71
2022/12/29 05:39:37;;;;;;;15.15;8.48;;;20.20;54.90;;;;;;5086721;28;20032;-72
2022/12/29 05:42:04;;;;;;;14.25;8.80;;;20.30;55.00;;;;;;5089036;28;20043;-72
2022/12/29 05:44:53;;;;;;;15.60;8.75;;;20.20;54.80;;;;;;5087081;28;20040;-72
2022/12/29 05:47:44;;;;;;;12.63;8.35;;;20.20;54.80;;;;;;5076192;28;20507;-71
2022/12/29 05:50:39;;;;;;;18.67;9.10;;;20.30;54.70;;;;;;5031076;28;20489;-72
2022/12/29 05:53:11;;;;;;;15.40;7.95;;;20.10;54.30;;;;;;5023633;28;20045;-73
2022/12/29 05:55:38;;;;;;;14.02;8.90;;;20.20;54.40;;;;;;5030929;28;20041;-71
2022/12/29 05:58:04;;;;;;;15.27;9.02;;;20.00;54.40;;;;;;5014423;28;20120;-71
2022/12/29 06:00:31;;;;;;;14.70;8.50;;;20.10;54.60;;;;;;5007265;28;20104;-71
2022/12/29 06:02:58;;;;;;;15.65;9.05;;;20.20;54.50;;;;;;5026498;28;20038;-72
2022/12/29 06:05:25;;;;;;;16.65;9.10;;;20.10;54.50;;;;;;5010244;28;20514;-71
2022/12/29 06:07:51;;;;;;;18.98;9.85;;;20.10;54.30;;;;;;5012715;28;20073;-72
2022/12/29 06:10:17;;;;;;;14.07;9.27;;;20.20;54.20;;;;;;4994653;28;20430;-72
2022/12/29 06:12:49;;;;;;;13.82;9.40;;;20.20;54.10;;;;;;4994783;28;20037;-72
2022/12/29 06:15:15;;;;;;;19.30;8.57;;;20.20;54.00;;;;;;5003899;28;20056;-71
2022/12/29 06:17:43;;;;;;;14.05;8.48;;;20.20;54.00;;;;;;5011809;28;20042;-70
2022/12/29 06:20:10;;;;;;;18.00;9.02;;;20.20;54.70;;;;;;5010316;28;20094;-72
2022/12/29 06:22:37;;;;;;;19.52;10.75;;;20.30;54.80;;;;;;5011938;28;20045;-73
2022/12/29 06:25:03;;;;;;;15.40;8.65;;;20.50;54.40;;;;;;5025634;28;20029;-73
2022/12/29 06:27:29;;;;;;;10.48;7.63;;;20.60;49.40;;;;;;5058997;28;20107;-73
2022/12/29 06:29:55;;;;;;;12.73;7.85;;;20.60;47.40;;;;;;5080914;28;20025;-72
2022/12/29 06:32:23;;;;;;;12.95;7.32;;;20.80;46.20;;;;;;5082203;28;20031;-73
2022/12/29 06:34:52;;;;;;;9.40;7.32;;;20.80;46.30;;;;;;5086811;28;20862;-72
2022/12/29 06:37:18;;;;;;;11.15;7.88;;;21.00;46.50;;;;;;5079749;28;20400;-72
2022/12/29 06:39:45;;;;;;;10.65;7.88;;;21.10;48.60;;;;;;5081585;28;20032;-74
2022/12/29 06:42:13;;;;;;;14.40;8.93;;;21.10;47.90;;;;;;5062489;28;20032;-72
2022/12/29 06:45:09;;;;;;;19.05;9.77;;;21.10;47.40;;;;;;5038030;28;20121;-74
2022/12/29 06:47:35;;;;;;;18.50;10.55;;;21.10;46.60;;;;;;5038530;28;20033;-74
2022/12/29 06:50:02;;;;;;;18.98;12.20;;;21.20;46.80;;;;;;5037563;28;20594;-74
2022/12/29 06:52:28;;;;;;;15.48;10.65;;;21.20;46.80;;;;;;5030246;28;20061;-74
2022/12/29 06:54:54;;;;;;;16.38;8.80;;;21.20;47.20;;;;;;4996297;28;20042;-76
2022/12/29 06:57:21;;;;;;;21.30;10.00;;;21.30;54.20;;;;;;5030564;28;20053;-73
2022/12/29 06:59:47;;;;;;;20.30;10.38;;;21.60;58.50;;;;;;5030279;28;20078;-72
2022/12/29 07:02:19;;;;;;;13.23;7.63;;;21.60;61.70;;;;;;5047406;28;20527;-72
2022/12/29 07:04:45;;;;;;;13.52;7.97;;;21.70;61.70;;;;;;5015910;28;20090;-74
2022/12/29 07:07:11;;;;;;;11.93;6.50;;;21.80;60.90;;;;;;5033210;28;20053;-71
2022/12/29 07:09:37;;;;;;;12.48;7.47;;;21.90;60.30;;;;;;5033101;28;20068;-71
2022/12/29 07:12:03;;;;;;;11.02;7.50;;;22.00;58.90;;;;;;5016207;28;20386;-71
2022/12/29 07:14:30;;;;;;;11.70;7.13;;;22.00;58.20;;;;;;5047748;28;20041;-70
2022/12/29 07:16:55;;;;;;;14.63;7.25;;;22.10;57.60;;;;;;5031138;28;20056;-71
2022/12/29 07:19:23;;;;;;;11.45;7.05;;;22.10;56.80;;;;;;5037643;28;20037;-71
2022/12/29 07:21:48;;;;;;;8.43;5.50;;;22.20;56.20;;;;;;5068877;28;20482;-76
2022/12/29 07:24:15;;;;;;;12.43;6.72;;;22.20;55.60;;;;;;5075153;28;20020;-74
2022/12/29 07:26:41;;;;;;;11.40;6.20;;;22.20;55.40;;;;;;5072627;28;20044;-79
2022/12/29 07:29:07;;;;;;;8.23;5.20;;;22.20;54.70;;;;;;5073447;28;20044;-71
2022/12/29 07:31:33;;;;;;;10.18;6.35;;;22.30;53.90;;;;;;5070849;28;20153;-73
2022/12/29 07:33:59;;;;;;;9.70;5.60;;;22.40;53.20;;;;;;5086652;28;20520;-74
2022/12/29 07:36:25;;;;;;;9.18;5.55;;;22.40;52.50;;;;;;5077091;28;20033;-76
2022/12/29 07:38:51;;;;;;;10.05;6.38;;;22.50;52.10;;;;;;5079979;28;20035;-74
2022/12/29 07:41:18;;;;;;;10.65;6.95;;;22.60;51.60;;;;;;5080749;28;20384;-74
2022/12/29 07:43:48;;;;;;;10.10;7.55;;;22.50;51.10;;;;;;5080610;28;20035;-73
2022/12/29 07:46:25;;;;;;;14.35;6.88;;;22.40;50.40;;;;;;5079652;28;20048;-73
2022/12/29 07:48:50;;;;;;;13.25;7.63;;;22.40;51.20;;;;;;5088317;28;20146;-76
2022/12/29 07:51:16;;;;;;;11.38;7.10;;;22.00;52.30;;;;;;5089467;28;20548;-75
2022/12/29 07:53:42;;;;;;;10.43;6.38;;;21.90;53.40;;;;;;5079804;28;20103;-74
2022/12/29 07:56:08;;;;;;;12.13;7.55;;;21.80;54.00;;;;;;5077985;28;20064;-73
2022/12/29 07:58:34;;;;;;;14.95;7.70;;;21.70;55.50;;;;;;5073819;28;20068;-73
2022/12/29 08:01:00;;;;;;;12.38;7.25;;;21.50;55.60;;;;;;5070695;28;20178;-72
2022/12/29 08:03:26;;;;;;;12.15;8.52;;;21.60;55.80;;;;;;5074215;28;20032;-73
2022/12/29 08:05:52;;;;;;;12.00;7.38;;;21.50;56.10;;;;;;5088476;28;20039;-72
2022/12/29 08:08:19;;;;;;;13.02;6.82;;;21.50;56.40;;;;;;5070657;28;20599;-73
2022/12/29 08:10:45;;;;;;;12.18;7.07;;;21.40;56.60;;;;;;5053215;28;20029;-73
2022/12/29 08:13:12;;;;;;;11.38;6.72;;;21.20;56.70;;;;;;5070936;28;20051;-73
2022/12/29 08:15:38;;;;;;;10.18;5.72;;;21.30;57.30;;;;;;5013809;28;20112;-72
2022/12/29 08:18:04;;;;;;;11.07;6.05;;;21.20;57.60;;;;;;5050539;28;20071;-74
2022/12/29 08:20:30;;;;;;;12.48;6.32;;;21.30;57.80;;;;;;5068961;28;20119;-74
2022/12/29 08:22:56;;;;;;;10.30;6.03;;;21.30;57.60;;;;;;5070859;28;20039;-71
2022/12/29 08:25:22;;;;;;;15.82;7.15;;;21.30;57.90;;;;;;5071335;28;20024;-73
2022/12/29 08:27:48;;;;;;;14.40;6.97;;;21.30;58.10;;;;;;5066221;28;20142;-73
2022/12/29 08:30:14;;;;;;;13.98;7.47;;;21.40;58.30;;;;;;5050595;28;20178;-74
2022/12/29 08:32:40;;;;;;;15.38;7.55;;;21.40;58.50;;;;;;5031613;28;20041;-74
2022/12/29 08:35:07;;;;;;;13.27;8.13;;;21.30;59.70;;;;;;5050953;28;20037;-73
2022/12/29 08:37:33;;;;;;;12.13;7.63;;;21.30;60.00;;;;;;5050792;28;20406;-74
2022/12/29 08:40:03;;;;;;;14.63;7.20;;;21.30;60.10;;;;;;5050646;28;20047;-73
2022/12/29 08:42:30;;;;;;;10.98;6.57;;;21.30;60.50;;;;;;5051778;28;20036;-73
2022/12/29 08:44:58;;;;;;;13.63;7.80;;;21.30;60.50;;;;;;5070019;28;20469;-72
2022/12/29 08:47:24;;;;;;;13.43;7.10;;;21.40;60.30;;;;;;5070872;28;20086;-74
2022/12/29 08:49:50;;;;;;;14.70;7.95;;;21.40;60.20;;;;;;5070483;28;20033;-75
2022/12/29 08:52:16;;;;;;;18.02;8.32;;;21.40;60.30;;;;;;5070766;28;20059;-76
2022/12/29 08:54:42;;;;;;;11.57;7.40;;;21.40;60.20;;;;;;5070851;28;20033;-74
2022/12/29 08:57:08;;;;;;;14.20;7.55;;;21.40;60.30;;;;;;5070953;28;20732;-74
2022/12/29 08:59:40;;;;;;;12.20;8.27;;;21.40;60.70;;;;;;5051212;28;20024;-74
2022/12/29 09:02:12;;;;;;;16.13;7.55;;;21.30;61.10;;;;;;5052628;28;20626;-75
2022/12/29 09:04:38;;;;;;;21.63;8.38;;;21.30;61.30;;;;;;5058555;28;20063;-74
2022/12/29 09:07:05;;;;;;;16.80;8.85;;;21.20;61.10;;;;;;5070931;28;20373;-75
2022/12/29 09:09:32;;;;;;;12.25;8.02;;;21.20;61.00;;;;;;5070556;28;20466;-75
2022/12/29 09:11:58;;;;;;;13.75;7.70;;;21.10;60.90;;;;;;5073426;28;20032;-75
2022/12/29 09:14:24;;;;;;;12.18;7.93;;;21.20;61.00;;;;;;5062314;28;20037;-75
2022/12/29 09:19:39;;;;;;;12.90;7.53;;;21.10;60.80;;;;;;5074281;28;20104;-75
2022/12/29 09:22:05;;;;;;;13.50;7.65;;;21.10;60.80;;;;;;5074303;28;20123;-75
2022/12/29 09:24:31;;;;;;;16.13;8.30;;;21.10;60.80;;;;;;5072419;28;20119;-75
2022/12/29 09:26:57;;;;;;;17.73;8.35;;;21.00;60.50;;;;;;5070589;28;20040;-73
2022/12/29 09:29:23;;;;;;;10.85;7.63;;;21.00;60.50;;;;;;5036068;28;20119;-74
2022/12/29 09:31:49;;;;;;;12.88;8.07;;;21.00;60.50;;;;;;5070095;28;20115;-73
2022/12/29 09:34:15;;;;;;;15.52;8.73;;;21.10;60.50;;;;;;5094402;28;20054;-75
2022/12/29 09:36:41;;;;;;;17.02;8.57;;;21.10;60.20;;;;;;5094303;28;20430;-74
2022/12/29 09:39:07;;;;;;;13.35;7.63;;;21.10;60.10;;;;;;5074355;28;20028;-74
2022/12/29 09:41:43;;;;;;;15.80;8.10;;;21.20;59.80;;;;;;5073823;28;20037;-74
2022/12/29 09:44:31;;;;;;;16.08;7.75;;;21.20;59.70;;;;;;5073509;28;20071;-74
2022/12/29 09:46:57;;;;;;;15.95;8.15;;;21.20;59.80;;;;;;5073766;28;20024;-74
2022/12/29 09:49:43;;;;;;;14.63;8.13;;;21.20;59.70;;;;;;5074083;28;20028;-75
2022/12/29 09:52:29;;;;;;;16.63;9.32;;;21.30;59.80;;;;;;5073811;28;20107;-74
2022/12/29 09:55:01;;;;;;;16.27;8.45;;;21.30;59.40;;;;;;5054876;28;20048;-75
2022/12/29 09:58:02;;;;;;;16.33;7.97;;;21.30;59.10;;;;;;5068562;28;20032;-75
2022/12/29 10:00:38;;;;;;;14.73;8.25;;;21.30;59.00;;;;;;4971313;28;20105;-74
2022/12/29 10:03:11;;;;;;;11.60;8.13;;;21.20;59.10;;;;;;4972324;28;20058;-74
2022/12/29 10:05:43;;;;;;;18.35;9.10;;;21.40;59.90;;;;;;4972115;28;20049;-76
2022/12/29 10:08:26;;;;;;;12.52;7.40;;;21.20;47.00;;;;;;4975944;28;20035;-75
2022/12/29 10:11:15;;;;;;;7.65;6.30;;;21.30;45.30;;;;;;5008802;28;20057;-75
2022/12/29 10:13:49;;;;;;;8.27;5.47;;;21.30;44.10;;;;;;5010395;28;20045;-75
2022/12/29 10:16:23;;;;;;;9.23;6.80;;;21.40;43.60;;;;;;5010984;28;20045;-76
2022/12/29 10:19:15;;;;;;;6.22;4.00;;;21.40;43.70;;;;;;5011157;28;20046;-76
2022/12/29 10:21:53;;;;;;;13.43;5.80;;;21.40;45.60;;;;;;4977103;28;20104;-75
2022/12/29 10:24:20;;;;;;;11.50;6.57;;;21.40;42.40;;;;;;5009620;28;20561;-76
2022/12/29 10:26:50;;;;;;;7.57;5.57;;;21.50;42.50;;;;;;5010995;28;20414;-76
2022/12/29 10:29:33;;;;;;;12.82;5.75;;;21.50;41.90;;;;;;5004848;28;20085;-76
2022/12/29 10:32:02;;;;;;;;;;;21.50;40.80;;;;;;5010335;28;20478;-76
2022/12/29 10:34:36;;;;;;;9.73;7.20;;;21.50;40.60;;;;;;5005813;28;19923;-78
2022/12/29 10:37:05;;;;;;;;;;;21.50;42.30;;;;;;5050100;28;20048;-76
2022/12/29 10:39:49;;;;;;;11.20;8.30;;;21.50;41.40;;;;;;5074526;28;19908;-75
2022/12/29 10:42:42;;;;;;;10.13;5.72;;;21.60;41.70;;;;;;5089774;28;20726;-75
2022/12/29 10:45:14;;;;;;;10.45;7.03;;;21.50;43.50;;;;;;5080568;28;20043;-76
2022/12/29 10:47:52;;;;;;;19.20;8.30;;;21.60;44.30;;;;;;5092684;28;20103;-74
2022/12/29 10:50:19;;;;;;;12.23;7.53;;;21.60;44.90;;;;;;5085631;28;20052;-76
2022/12/29 10:52:46;;;;;;;14.60;7.93;;;21.60;47.20;;;;;;5071352;28;20146;-82
2022/12/29 10:55:33;;;;;;;12.80;6.03;;;21.80;50.30;;;;;;5088711;28;20040;-76
2022/12/29 10:58:06;;;;;;;10.73;6.60;;;22.10;48.60;;;;;;5092976;28;20043;-74
2022/12/29 11:00:32;;;;;;;16.75;7.40;;;22.10;48.20;;;;;;5085276;28;20035;-75
2022/12/29 11:03:08;;;;;;;15.63;8.10;;;22.20;48.10;;;;;;5073865;28;20036;-74
2022/12/29 11:05:46;;;;;;;14.15;8.55;;;22.40;48.00;;;;;;5074480;28;20331;-77
2022/12/29 11:08:17;;;;;;;13.48;8.05;;;22.50;51.30;;;;;;5072958;28;20060;-77
2022/12/29 11:10:46;;;;;;;16.85;9.52;;;22.50;49.50;;;;;;5070460;28;20496;-73
2022/12/29 11:13:18;;;;;;;11.25;6.03;;;22.70;46.70;;;;;;5071578;28;20044;-75
2022/12/29 11:15:47;;;;;;;13.85;8.90;;;22.70;46.20;;;;;;5066611;28;20028;-74
2022/12/29 11:18:37;;;;;;;13.80;8.52;;;22.70;44.50;;;;;;5056295;28;20036;-77
2022/12/29 11:21:24;;;;;;;15.18;8.85;;;22.70;47.30;;;;;;4950877;28;20094;-79
2022/12/29 11:23:59;;;;;;;13.82;8.35;;;22.70;46.90;;;;;;4957840;28;20026;-75
2022/12/29 11:26:26;;;;;;;14.52;8.43;;;22.60;48.00;;;;;;4970767;28;20039;-75
2022/12/29 11:29:13;;;;;;;14.35;8.80;;;22.80;49.20;;;;;;4970738;28;20038;-75
2022/12/29 11:31:45;;;;;;;19.63;9.48;;;22.90;49.50;;;;;;4970231;28;20126;-75
2022/12/29 11:34:34;;;;;;;12.45;8.23;;;23.00;49.70;;;;;;4954152;28;20035;-75
2022/12/29 11:37:28;;;;;;;14.57;9.73;;;23.00;46.00;;;;;;4970499;28;20062;-75
2022/12/29 11:40:04;;;;;;;11.35;7.22;;;23.00;43.70;;;;;;4972234;28;20111;-73
2022/12/29 11:42:42;;;;;;;12.63;7.97;;;23.00;42.80;;;;;;4970617;28;20047;-74
2022/12/29 11:45:23;;;;;;;12.88;7.60;;;22.90;44.30;;;;;;4969034;28;20046;-74
2022/12/29 11:48:09;;;;;;;12.32;7.78;;;22.80;41.00;;;;;;4969309;28;20097;-73
2022/12/29 11:50:39;;;;;;;12.20;6.88;;;22.80;41.50;;;;;;4973184;28;20029;-76
2022/12/29 11:53:22;;;;;;;15.68;8.50;;;22.80;41.50;;;;;;4969989;28;20102;-75
2022/12/29 11:55:58;;;;;;;13.68;8.30;;;22.80;55.30;;;;;;4937264;28;20143;-73
2022/12/29 11:58:33;;;;;;;11.00;7.65;;;23.10;56.40;;;;;;5031750;28;20529;-73
2022/12/29 12:01:19;;;;;;;15.52;8.95;;;23.10;57.00;;;;;;5067095;28;20111;-74
2022/12/29 12:03:59;;;;;;;14.02;7.07;;;23.00;57.50;;;;;;5040529;28;20033;-73
2022/12/29 12:06:27;;;;;;;14.88;7.85;;;23.00;57.90;;;;;;5054031;28;20362;-74
2022/12/29 12:08:57;;;;;;;13.85;7.32;;;23.10;58.30;;;;;;5053582;28;20054;-75
2022/12/29 12:11:36;;;;;;;12.93;7.60;;;23.00;58.50;;;;;;5069828;28;20028;-75
2022/12/29 12:14:06;;;;;;;14.77;7.80;;;23.20;58.70;;;;;;5053059;28;20093;-72
2022/12/29 12:17:06;;;;;;;12.25;7.68;;;23.00;58.60;;;;;;5065925;28;20036;-72
2022/12/29 12:19:57;;;;;;;11.98;7.30;;;23.10;59.10;;;;;;5051045;28;20063;-75
2022/12/29 12:22:37;;;;;;;14.13;8.05;;;23.00;59.00;;;;;;4969592;28;20042;-73
2022/12/29 12:25:12;;;;;;;14.90;9.02;;;23.00;58.90;;;;;;4940841;28;20725;-73
2022/12/29 12:27:47;;;;;;;16.08;9.00;;;23.00;59.00;;;;;;4969573;28;20054;-74
2022/12/29 12:30:18;;;;;;;14.68;9.18;;;23.00;59.00;;;;;;4967221;28;20030;-76
2022/12/29 12:32:48;;;;;;;18.85;9.85;;;23.00;59.00;;;;;;4969676;28;20159;-73
2022/12/29 12:35:30;;;;;;;11.80;8.60;;;22.90;58.60;;;;;;4953223;28;20070;-72
2022/12/29 12:38:04;;;;;;;18.67;9.13;;;23.00;59.00;;;;;;4932590;28;20096;-74
2022/12/29 12:40:35;;;;;;;14.40;8.90;;;22.90;59.10;;;;;;4953474;28;20129;-74
2022/12/29 12:43:36;;;;;;;16.50;8.25;;;22.70;59.00;;;;;;4969737;28;20047;-73
2022/12/29 12:46:25;;;;;;;15.27;8.68;;;22.70;58.90;;;;;;4951952;28;20556;-74
2022/12/29 12:49:23;;;;;;;16.23;7.20;;;22.60;59.00;;;;;;4971127;28;20052;-73
2022/12/29 12:52:01;;;;;;;14.23;7.72;;;22.60;59.10;;;;;;4949113;29;20046;-74
2022/12/29 12:54:32;;;;;;;13.73;8.27;;;22.60;59.10;;;;;;4968188;28;20074;-74
2022/12/29 12:57:07;;;;;;;14.13;8.73;;;22.60;58.80;;;;;;4968669;28;20061;-74
2022/12/29 12:59:56;;;;;;;14.93;9.43;;;22.50;58.80;;;;;;5011849;28;20087;-74
2022/12/29 13:03:00;;;;;;;11.90;8.15;;;22.40;59.10;;;;;;5050247;28;20558;-75
2022/12/29 13:05:47;;;;;;;21.60;10.13;;;22.50;59.20;;;;;;5061229;28;20481;-74
2022/12/29 13:08:26;;;;;;;18.05;9.48;;;22.50;59.30;;;;;;5068801;28;20053;-74
2022/12/29 13:11:07;;;;;;;16.20;8.63;;;22.50;59.20;;;;;;5069475;28;20040;-74
2022/12/29 13:13:47;;;;;;;13.18;8.15;;;22.40;59.20;;;;;;5055109;28;20082;-74
2022/12/29 13:16:41;;;;;;;17.30;9.63;;;22.40;59.30;;;;;;5051176;28;20441;-74
2022/12/29 13:19:13;;;;;;;17.55;8.75;;;22.60;59.20;;;;;;5049067;28;20041;-74
2022/12/29 13:22:07;;;;;;;13.38;7.55;;;22.40;59.00;;;;;;5050053;28;20033;-74
2022/12/29 13:24:49;;;;;;;11.73;7.63;;;22.50;59.20;;;;;;5050233;28;20037;-74
2022/12/29 13:27:45;;;;;;;13.98;8.60;;;22.60;58.80;;;;;;5050373;28;20531;-73
2022/12/29 13:30:20;;;;;;;17.98;8.65;;;22.70;58.80;;;;;;5052478;28;20037;-73
2022/12/29 13:33:21;;;;;;;15.23;8.90;;;22.60;58.80;;;;;;5052306;28;20096;-74
2022/12/29 13:35:50;;;;;;;13.00;7.72;;;22.60;58.90;;;;;;5068054;28;20033;-74
2022/12/29 13:38:37;;;;;;;11.55;7.53;;;22.40;59.00;;;;;;5068715;28;20115;-74
2022/12/29 13:41:11;;;;;;;14.50;8.45;;;22.40;58.90;;;;;;5070323;28;20495;-74
2022/12/29 13:43:41;;;;;;;16.77;7.82;;;22.30;59.10;;;;;;5070180;28;20025;-74
2022/12/29 13:46:33;;;;;;;13.80;8.02;;;22.20;59.10;;;;;;5066791;28;20052;-74